Station info - map view · info · telemetry · weather · raw · status · beacons · messages · bulletins · browse · moving · my account
Callsign, ship name or locator: Clear       
It is possible to search using wildcards (*?) after a prefix. Example: OH*
APRS station HG1DFB-8 - show graphs
Map loading...
Comment: 144.800MHz c100 www.tami.hu
Mic-E message: En route
Last beacon: HG1DFB/R
Location: 47°29.93' N 19°00.75' E - locator JN97ML19MR - show map - static map
1.3 miles West bearing 273° from Budapest, Budapest, Hungary [?]
1.9 miles Northwest bearing 325° from Budapest XI. kerület (Budapest XI. keruelet), Budapest, Hungary
5.1 miles North bearing 345° from Budapest XXII. kerület (Budapest XXII. keruelet), Budapest, Hungary
5.5 miles Northwest bearing 330° from Budapest XXI. kerület (Budapest XXI. keruelet), Budapest, Hungary
Last position: 2017-02-08 09:13:09 EST (18d 14h19m ago)
2017-02-08 15:13:09 CET local time at Budapest, Hungary [?]
Altitude: 646 ft
Course: 290°
Speed: 29 MPH
Last telemetry: 2011-06-01 13:36:04 EDT (2097d 10h57m ago) – show telemetry
Ch 1: 428, Ch 2: 615, Ch 3: 0, Ch 4: 0, Ch 5: 0
 1     2     3     4     5     6     7     8 
Device: Kenwood: TM-D700 (rig)
Last path: HG1DFB-8>TW2Y93 via WIDE1-1,WIDE2-1,qAR,HG5CJW-12 (good)
Positions stored: 217952
Other SSIDs: HG1DFB HG1DFB-1 HG1DFB-10 HG1DFB-6
Last heard a station directly: 2016-12-06 01:32:18 EST (82d 22h ago)
Stations near current position of HG1DFB-8 - show more
callsign distance last heard - EST      callsign distance last heard - EST
HG5CJW-12119.2 yards 346°2017-02-26 23:19:40 HA7DCD-10454.2 yards 249°2017-02-26 23:23:14
HA5ASS0.5 miles 85°2017-02-26 23:25:17 HA5DI-70.8 miles 43°2017-02-24 08:52:50
HG5BBH-110.9 miles 280°2017-02-26 12:51:03 HA5DI-461.5 miles 251°2017-02-26 23:20:03
IV3CVN-71.7 miles 119°2017-02-26 16:48:21 HA5ASS-71.8 miles 272°2017-02-14 11:44:16
HG5RVB1.8 miles 275°2017-02-26 22:59:16 HG5RUC1.8 miles 275°2017-02-26 23:30:05
HG6PTZ1.9 miles 275°2017-02-21 12:41:58 HA5DI-332.0 miles 98°2017-02-13 02:55:07
HA5DI-302.1 miles 100°2017-02-13 02:55:07 HA5DI-952.1 miles 100°2017-02-13 02:55:07
EW46702.2 miles 132°2017-02-26 23:29:58 HG5CJX-32.2 miles 87°2017-02-26 12:17:08
ON4AVM-72.2 miles 129°2017-02-08 08:51:23 HA5TBB-92.2 miles 129°2017-02-10 14:48:39
HG5CJX-22.2 miles 86°2017-02-26 23:11:48 IV3CVN-92.5 miles 127°2017-02-26 19:37:03
Stations which heard HG1DFB-8 directly on radio –
callsign pkts first heard - EST last heard longest (tx => rx) longest at - EST
OE1XQR 26 2017-02-06 12:20:32 2017-02-06 17:18:25 JN88HC > JN88EE 13.6 miles 292° 2017-02-06 17:18:25
OE5XOR 39 2017-02-06 13:39:17 2017-02-06 16:02:43 JN67VV > JN78DJ 41.9 miles 33° 2017-02-06 14:40:09
OE6XTR 174 2017-02-02 11:41:02 2017-02-08 01:00:57 JN97ML > JN77VN 152.2 miles 274° 2017-02-07 01:34:07
HG5PBD-2 207 2017-02-01 07:37:50 2017-02-08 09:12:06 JN97HL > JN97LN 19.6 miles 78° 2017-02-06 18:41:23
HG1PNY-1 69 2017-02-06 00:49:29 2017-02-06 18:35:01 JM87VQ > JN87TN 684.6 miles 360° 2017-02-06 11:28:25
OE3XKR 14 2017-02-06 12:17:54 2017-02-06 17:21:34 JN78UE > JN88EN 40.8 miles 49° 2017-02-06 16:32:38
OE5ERN-10 3 2017-02-06 14:06:02 2017-02-06 15:42:40 JN78CE > JN78DH 11.1 miles 26° 2017-02-06 15:30:36
OE1SSU-10 18 2017-02-06 12:31:10 2017-02-06 17:04:09 JN88FC > JN88DD 6.6 miles 279° 2017-02-06 12:31:10
OE3XXR 7 2017-02-06 13:51:20 2017-02-06 15:48:01 JN78EF > JN78GD 10.2 miles 123° 2017-02-06 14:01:18
HG1DFB-1 210 2017-02-02 11:24:26 2017-02-03 10:15:28 JN97KL > JN97JL 1.6 miles 240° 2017-02-02 11:24:26
OE5XIM-10 34 2017-02-06 13:38:45 2017-02-06 15:58:00 JN68XA > JN78DN 41.1 miles 22° 2017-02-06 15:17:26
OE5XGL-10 69 2017-02-06 13:45:34 2017-02-06 15:50:38 JN78IC > JN67VV 43.6 miles 250° 2017-02-06 13:45:34
OE5REO-10 2 2017-02-06 15:26:20 2017-02-06 15:29:30 JN78CE > JN77BV 18.3 miles 186° 2017-02-06 15:29:30
OE1IWA-10 1 2017-02-06 12:35:36 2017-02-06 12:35:36 JN88DD > JN88ED 0.9 miles 48° 2017-02-06 12:35:36
OE3XIA-10 6 2017-02-06 12:09:20 2017-02-06 17:29:28 JN87KX > JN88CF 34.3 miles 304° 2017-02-06 17:29:28
OE3MZC-2 10 2017-02-06 12:55:12 2017-02-06 16:38:23 JN78UE > JN78XE 10.9 miles 84° 2017-02-06 13:07:46
OE3XDA-10 8 2017-02-06 13:30:23 2017-02-06 16:04:17 JN78ND > JN78LA 11.3 miles 221° 2017-02-06 13:30:23
OE5XBL-10 2 2017-02-06 14:30:40 2017-02-06 14:38:03 JN67VV > JN68PC 25.3 miles 302° 2017-02-06 14:38:03
OE3REC-11 19 2017-02-06 12:16:15 2017-02-06 17:19:28 JN88CC > JN88HE 18.4 miles 73° 2017-02-06 12:42:03
OE1IWA-11 2 2017-02-06 12:32:47 2017-02-06 17:03:38 JN88ED > JN88ED 2.3 miles 290° 2017-02-06 12:32:47
HG7PDK-2 21 2017-02-03 00:59:30 2017-02-08 09:02:34 JN97ML > JN97FQ 29.7 miles 300° 2017-02-08 01:23:40
HG5PGE-2 337 2017-02-01 07:31:33 2017-02-08 00:48:10 JN87PT > JN97FQ 57.2 miles 100° 2017-02-06 17:47:56
OE3XNR 1 2017-02-06 16:26:18 2017-02-06 16:26:18 JN78SE > JN78JQ 49.1 miles 314° 2017-02-06 16:26:18
OE5EEP-10 11 2017-02-06 14:21:46 2017-02-06 15:13:15 JN68XA > JN67TX 16.2 miles 256° 2017-02-06 14:21:46
OE3XHB-10 60 2017-02-06 12:55:44 2017-02-06 16:35:14 JN78HD > JN78QI 36.4 miles 66° 2017-02-06 13:49:13
OE3BUB-10 9 2017-02-06 12:19:28 2017-02-06 17:13:09 JN88CC > JN88FG 16.9 miles 36° 2017-02-06 16:56:48
OE3PDB-12 2 2017-02-06 13:01:29 2017-02-06 16:32:37 JN78UE > JN88BG 17.8 miles 75° 2017-02-06 16:32:37
OE3PDB-3 6 2017-02-06 12:20:31 2017-02-06 17:03:38 JN88HC > JN88BG 27.0 miles 292° 2017-02-06 12:20:31
OE3XFW-10 13 2017-02-06 12:52:03 2017-02-06 16:46:47 JN78VE > JN78XD 9.1 miles 109° 2017-02-06 13:04:06
HG5CJW 2 2017-02-01 07:44:37 2017-02-01 07:45:09 JN97KL > JN97KJ 4.7 miles 195° 2017-02-01 07:45:09
HG5CJW-12 146 2017-02-03 01:00:02 2017-02-08 09:13:09 JN97LK > JN97ML 4.0 miles 32° 2017-02-03 09:25:58
OE1XAW 14 2017-02-06 12:28:32 2017-02-06 17:15:47 JN88BB > JN88EE 14.7 miles 56° 2017-02-06 16:52:04
OE3XLR 48 2017-02-06 13:05:41 2017-02-06 16:42:36 JN78CE > JN77TX 67.5 miles 102° 2017-02-06 15:30:01
OE5XHR-10 4 2017-02-06 14:14:27 2017-02-06 15:23:11 JN68XA > JN68XR 48.6 miles 357° 2017-02-06 14:20:12
OE3XAR-10 5 2017-02-06 12:56:15 2017-02-06 16:22:36 JN78XD > JN78SB 21.2 miles 255° 2017-02-06 12:56:15
OE5WWO 6 2017-02-06 13:56:33 2017-02-06 15:40:02 JN78FE > JN78DH 9.2 miles 315° 2017-02-06 13:56:33
OE3PDB-1 1 2017-02-06 12:20:31 2017-02-06 12:20:31 JN88HC > JN88HD 2.9 miles 333° 2017-02-06 12:20:31
OE5XLM-10 5 2017-02-06 13:56:01 2017-02-06 15:33:44 JN78FE > JN78CH 12.3 miles 303° 2017-02-06 13:56:01
OE3XMC-10 2 2017-02-06 12:25:19 2017-02-06 12:25:51 JN88GD > JN88FD 2.1 miles 263° 2017-02-06 12:25:19

Only position packets which were originated by the station are shown here. The range statistics show some extra long hops, because some digipeaters do not correctly add themselves to the digipeater path. Please check the raw packets.
About this site
This page shows real-time information collected from the Automatic Position Reporting System Internet network (APRS-IS). APRS is used by amateur (ham) radio operators to transmit real-time position information, weather data, telemetry and messages over the radio. A vehicle equipped with a GPS receiver, a VHF transmitter or HF transceiver and a small computer device called a tracker transmits it's location, speed and course in a small data packet, which is then received by a nearby iGate receiving site which forwards the packet on the Internet. Systems connected to the Internet can send information on the APRS-IS without a radio transmitter, or collect and display information transmitted anywhere in the world.
FAQ · Blog · Discussion group · Linking to aprs.fi · AIS sites · Service status · Database statistics · Advertising on aprs.fi · Technical details · API · Change log · Planned changes · Credits and thanks · Terms Of Service · iPhone/iPad APRS